Time;durP1;ratioP1;P1;durP2;ratioP2;P2;SDS_P1;SDS_P2;PMS_P1;PMS_P2;Temp;Humidity;BMP_temperature;BMP_pressure;BME280_temperature;BME280_humidity;BME280_pressure;Samples;Min_cycle;Max_cycle;Signal;HPM_P1;HPM_P2
2022/07/07 00:00:40;;;;;;;0.00;0.00;;;16.00;99.90;;;;;;5104435;28;20512;-77
2022/07/07 00:03:15;;;;;;;0.00;0.00;;;16.00;99.90;;;;;;5104615;28;20441;-76
2022/07/07 00:05:45;;;;;;;0.00;0.00;;;16.00;99.90;;;;;;5102995;28;20840;-77
2022/07/07 00:08:15;;;;;;;0.00;0.00;;;16.10;99.90;;;;;;5102640;28;20557;-77
2022/07/07 00:10:44;;;;;;;0.00;0.00;;;16.10;99.90;;;;;;5101398;28;20867;-77
2022/07/07 00:13:12;;;;;;;0.00;0.00;;;16.20;99.90;;;;;;5104658;28;20712;-82
2022/07/07 00:15:42;;;;;;;0.00;0.00;;;16.20;99.90;;;;;;5104419;28;20445;-85
2022/07/07 00:18:10;;;;;;;0.00;0.00;;;16.10;99.90;;;;;;5104530;28;20469;-80
2022/07/07 00:20:38;;;;;;;0.00;0.00;;;16.10;99.90;;;;;;5103531;28;20437;-82
2022/07/07 00:23:08;;;;;;;0.00;0.00;;;16.20;99.90;;;;;;5107082;28;20507;-80
2022/07/07 00:25:35;;;;;;;0.00;0.00;;;16.20;99.90;;;;;;5118266;28;20433;-81
2022/07/07 00:28:03;;;;;;;0.00;0.00;;;16.20;99.90;;;;;;5123477;27;20537;-83
2022/07/07 00:30:31;;;;;;;0.00;0.00;;;16.20;99.90;;;;;;5109137;28;21054;-83
2022/07/07 00:32:59;;;;;;;0.00;0.00;;;16.20;99.90;;;;;;5106354;27;20785;-81
2022/07/07 00:35:27;;;;;;;0.00;0.00;;;16.20;99.90;;;;;;5106917;28;20449;-84
2022/07/07 00:37:55;;;;;;;0.00;0.00;;;16.20;99.90;;;;;;5104560;28;20488;-81
2022/07/07 00:40:25;;;;;;;0.00;0.00;;;16.20;99.90;;;;;;5105935;28;20555;-79
2022/07/07 00:42:53;;;;;;;0.00;0.00;;;16.20;99.90;;;;;;5104345;27;20441;-82
2022/07/07 00:45:21;;;;;;;0.00;0.00;;;16.20;99.90;;;;;;5105636;28;20725;-81
2022/07/07 00:47:49;;;;;;;0.00;0.00;;;16.20;99.90;;;;;;5105179;28;20969;-82
2022/07/07 00:50:17;;;;;;;0.00;0.00;;;16.20;99.90;;;;;;5108743;28;20487;-79
2022/07/07 00:52:45;;;;;;;0.00;0.00;;;16.20;99.90;;;;;;5107343;28;20482;-82
2022/07/07 00:55:13;;;;;;;0.00;0.00;;;16.20;99.90;;;;;;5105765;27;20844;-81
2022/07/07 00:57:43;;;;;;;0.00;0.00;;;16.20;99.90;;;;;;5103641;28;20550;-81
2022/07/07 01:00:13;;;;;;;0.00;0.00;;;16.30;99.90;;;;;;5102863;28;20593;-78
2022/07/07 01:02:43;;;;;;;0.00;0.00;;;16.30;99.90;;;;;;5102731;28;20501;-81
2022/07/07 01:05:11;;;;;;;0.00;0.00;;;16.20;99.90;;;;;;5101966;28;20434;-80
2022/07/07 01:07:39;;;;;;;0.00;0.00;;;16.20;99.90;;;;;;5103253;28;20564;-78
2022/07/07 01:10:08;;;;;;;0.00;0.00;;;16.20;99.90;;;;;;5103695;28;20986;-78
2022/07/07 01:12:38;;;;;;;0.00;0.00;;;16.20;99.90;;;;;;5102831;28;21007;-77
2022/07/07 01:15:10;;;;;;;0.00;0.00;;;16.10;99.90;;;;;;5102116;28;20536;-80
2022/07/07 01:17:38;;;;;;;0.00;0.00;;;16.20;99.90;;;;;;5102952;28;20667;-78
2022/07/07 01:20:09;;;;;;;0.00;0.00;;;16.20;99.90;;;;;;5122764;27;20505;-75
2022/07/07 01:22:38;;;;;;;0.00;0.00;;;16.20;99.90;;;;;;5114935;27;20532;-78
2022/07/07 01:25:08;;;;;;;0.00;0.00;;;16.20;99.90;;;;;;5099893;28;20481;-75
2022/07/07 01:27:36;;;;;;;0.00;0.00;;;16.20;99.90;;;;;;5105195;28;20515;-82
2022/07/07 01:30:05;;;;;;;0.00;0.00;;;16.20;99.90;;;;;;5102461;27;20501;-75
2022/07/07 01:32:33;;;;;;;0.00;0.00;;;16.20;99.90;;;;;;5087079;28;20588;-78
2022/07/07 01:35:01;;;;;;;0.00;0.00;;;16.20;99.90;;;;;;5090182;28;20434;-78
2022/07/07 01:37:29;;;;;;;0.00;0.00;;;16.20;99.90;;;;;;5094367;28;20455;-82
2022/07/07 01:39:56;;;;;;;0.00;0.00;;;16.20;99.90;;;;;;5098689;28;20431;-83
2022/07/07 01:42:26;;;;;;;0.00;0.00;;;16.30;99.90;;;;;;5091640;28;20458;-84
2022/07/07 01:44:54;;;;;;;0.00;0.00;;;16.30;99.90;;;;;;5095158;28;20431;-85
2022/07/07 01:47:23;;;;;;;0.00;0.00;;;16.30;99.90;;;;;;5094435;28;20528;-80
2022/07/07 01:49:52;;;;;;;0.00;0.00;;;16.40;99.90;;;;;;5087414;28;20442;-82
2022/07/07 01:52:20;;;;;;;0.00;0.00;;;16.40;99.90;;;;;;5094572;28;20477;-83
2022/07/07 01:54:48;;;;;;;0.00;0.00;;;16.40;99.90;;;;;;5096131;28;20431;-84
2022/07/07 01:57:16;;;;;;;0.00;0.00;;;16.40;99.90;;;;;;5091759;28;20895;-83
2022/07/07 01:59:46;;;;;;;0.00;0.00;;;16.40;99.90;;;;;;5088405;28;20430;-81
2022/07/07 02:02:13;;;;;;;0.00;0.00;;;16.50;99.90;;;;;;5095239;28;20791;-80
2022/07/07 02:04:41;;;;;;;0.00;0.00;;;16.50;99.90;;;;;;5100544;28;20511;-76
2022/07/07 02:07:09;;;;;;;0.00;0.00;;;16.60;99.90;;;;;;5106271;28;20885;-79
2022/07/07 02:09:37;;;;;;;0.00;0.00;;;16.60;99.90;;;;;;5106540;28;20528;-81
2022/07/07 02:12:06;;;;;;;0.00;0.00;;;16.60;99.90;;;;;;5106958;28;20476;-80
2022/07/07 02:14:34;;;;;;;0.00;0.00;;;16.60;99.90;;;;;;5105948;28;20449;-80
2022/07/07 02:17:03;;;;;;;0.00;0.00;;;16.70;99.90;;;;;;5105789;28;20465;-78
2022/07/07 02:22:07;;;;;;;0.00;0.00;;;16.80;99.90;;;;;;5370260;22;20487;-93
2022/07/07 02:24:35;;;;;;;0.00;0.00;;;16.90;99.90;;;;;;5061535;28;20961;-93
2022/07/07 02:27:05;;;;;;;0.00;0.00;;;16.90;99.90;;;;;;5062920;28;20532;-93
2022/07/07 02:29:33;;;;;;;0.00;0.00;;;16.90;99.90;;;;;;5064183;28;20462;-92
2022/07/07 02:32:03;;;;;;;0.00;0.00;;;16.90;99.90;;;;;;5058958;28;20927;-90
2022/07/07 02:34:31;;;;;;;0.00;0.00;;;16.90;99.90;;;;;;5057154;28;20501;-90
2022/07/07 02:36:58;;;;;;;0.00;0.00;;;16.90;99.90;;;;;;5057112;28;20979;-90
2022/07/07 02:39:26;;;;;;;0.00;0.00;;;16.90;99.90;;;;;;5056685;28;20467;-90
2022/07/07 02:41:54;;;;;;;0.00;0.00;;;16.90;99.90;;;;;;5057790;28;20491;-90
2022/07/07 02:44:22;;;;;;;0.00;0.00;;;16.90;99.90;;;;;;5057650;28;20437;-90
2022/07/07 02:46:50;;;;;;;0.00;0.00;;;16.90;99.90;;;;;;5056831;28;20449;-91
2022/07/07 02:49:20;;;;;;;0.00;0.00;;;16.90;99.90;;;;;;5057339;28;20495;-90
2022/07/07 02:51:48;;;;;;;0.00;0.00;;;16.90;99.90;;;;;;5057896;28;20536;-91
2022/07/07 02:54:17;;;;;;;0.00;0.00;;;16.80;99.90;;;;;;5057047;28;20992;-92
2022/07/07 02:56:45;;;;;;;0.00;0.00;;;16.80;99.90;;;;;;5057266;28;20797;-92
2022/07/07 02:59:14;;;;;;;0.00;0.00;;;16.90;99.90;;;;;;5056279;28;21160;-92
2022/07/07 03:01:42;;;;;;;0.00;0.00;;;17.00;99.90;;;;;;5055527;28;20654;-91
2022/07/07 03:04:10;;;;;;;0.00;0.00;;;17.00;99.90;;;;;;5056938;28;20450;-91
2022/07/07 03:06:40;;;;;;;0.00;0.00;;;17.10;99.90;;;;;;5056924;28;20544;-92
2022/07/07 03:09:08;;;;;;;0.00;0.00;;;17.10;99.90;;;;;;5065340;28;20653;-92
2022/07/07 03:11:36;;;;;;;0.00;0.00;;;17.10;99.90;;;;;;5064360;28;20448;-92
2022/07/07 03:14:04;;;;;;;0.00;0.00;;;17.10;99.90;;;;;;5056683;28;20955;-91
2022/07/07 03:16:32;;;;;;;0.00;0.00;;;17.10;99.90;;;;;;5055915;28;20448;-90
2022/07/07 03:19:00;;;;;;;0.00;0.00;;;17.10;99.90;;;;;;5056383;28;20940;-91
2022/07/07 03:21:28;;;;;;;0.00;0.00;;;17.10;99.90;;;;;;5055233;28;20538;-92
2022/07/07 03:23:58;;;;;;;0.00;0.00;;;17.10;99.90;;;;;;5062630;28;20495;-87
2022/07/07 03:26:26;;;;;;;0.00;0.00;;;17.20;99.90;;;;;;5071941;28;20679;-91
2022/07/07 03:28:54;;;;;;;0.00;0.00;;;17.20;99.90;;;;;;5058662;28;20442;-90
2022/07/07 03:31:22;;;;;;;0.00;0.00;;;17.20;99.90;;;;;;5056938;28;20469;-92
2022/07/07 03:33:50;;;;;;;0.00;0.00;;;17.20;99.90;;;;;;5054893;28;20565;-91
2022/07/07 03:36:21;;;;;;;0.00;0.00;;;17.20;99.90;;;;;;5055037;28;20525;-91
2022/07/07 03:38:49;;;;;;;0.00;0.00;;;17.20;99.90;;;;;;5056147;28;20433;-92
2022/07/07 03:41:18;;;;;;;0.00;0.00;;;17.20;99.90;;;;;;5056437;28;20540;-92
2022/07/07 03:43:46;;;;;;;0.00;0.00;;;17.20;99.90;;;;;;5055552;28;20496;-91
2022/07/07 03:46:15;;;;;;;0.00;0.00;;;17.20;99.90;;;;;;5055846;28;20448;-90
2022/07/07 03:48:43;;;;;;;0.00;0.00;;;17.20;99.90;;;;;;5056016;28;20545;-91
2022/07/07 03:51:11;;;;;;;0.00;0.00;;;17.20;99.90;;;;;;5055441;28;20483;-92
2022/07/07 03:53:39;;;;;;;0.00;0.00;;;17.20;99.90;;;;;;5054948;28;20473;-92
2022/07/07 03:56:07;;;;;;;0.00;0.00;;;17.30;99.90;;;;;;5054661;28;20532;-91
2022/07/07 03:58:38;;;;;;;0.00;0.00;;;17.30;99.90;;;;;;5055253;28;20445;-92
2022/07/07 04:01:06;;;;;;;0.00;0.00;;;17.30;99.90;;;;;;5055970;28;20449;-91
2022/07/07 04:03:34;;;;;;;0.00;0.00;;;17.40;99.90;;;;;;5065533;28;20509;-92
2022/07/07 04:06:02;;;;;;;0.00;0.00;;;17.40;99.90;;;;;;5074002;28;20468;-92
2022/07/07 04:08:30;;;;;;;0.00;0.00;;;17.40;99.90;;;;;;5067711;28;20434;-91
2022/07/07 04:11:01;;;;;;;0.00;0.00;;;17.40;99.90;;;;;;5068119;28;20449;-91
2022/07/07 04:13:29;;;;;;;0.00;0.00;;;17.40;99.90;;;;;;5068986;28;20466;-89
2022/07/07 04:15:59;;;;;;;0.00;0.00;;;17.40;99.90;;;;;;5073809;28;20427;-91
2022/07/07 04:18:27;;;;;;;0.00;0.00;;;17.40;99.90;;;;;;5074338;28;20439;-91
2022/07/07 04:21:01;;;;;;;0.00;0.00;;;17.40;99.90;;;;;;5072338;28;20464;-92
2022/07/07 04:23:43;;;;;;;0.00;0.00;;;17.30;99.90;;;;;;5068678;28;20563;-90
2022/07/07 04:26:12;;;;;;;0.00;0.00;;;17.30;99.90;;;;;;5067155;28;20424;-90
2022/07/07 04:28:40;;;;;;;0.00;0.00;;;17.30;99.90;;;;;;5072928;28;20460;-91
2022/07/07 04:31:09;;;;;;;0.00;0.00;;;17.20;99.90;;;;;;5073458;28;20465;-91
2022/07/07 04:33:37;;;;;;;0.00;0.00;;;17.20;99.90;;;;;;5073955;28;20567;-90
2022/07/07 04:36:05;;;;;;;0.00;0.00;;;17.30;99.90;;;;;;5074626;28;20430;-91
2022/07/07 04:38:33;;;;;;;0.00;0.00;;;17.30;99.90;;;;;;5075109;28;20691;-91
2022/07/07 04:41:01;;;;;;;0.00;0.00;;;17.40;99.90;;;;;;5073425;28;20425;-91
2022/07/07 04:43:29;;;;;;;0.00;0.00;;;17.30;99.90;;;;;;5069751;28;20454;-90
2022/07/07 04:45:57;;;;;;;0.00;0.00;;;17.30;99.90;;;;;;5066900;28;20447;-91
2022/07/07 04:48:27;;;;;;;0.00;0.00;;;17.40;99.90;;;;;;5066974;28;20449;-90
2022/07/07 04:50:56;;;;;;;0.00;0.00;;;17.40;99.90;;;;;;5062999;28;20474;-90
2022/07/07 04:53:27;;;;;;;0.00;0.00;;;17.40;99.90;;;;;;5054391;28;20549;-91
2022/07/07 04:55:56;;;;;;;0.00;0.00;;;17.50;99.90;;;;;;5053467;28;20450;-89
2022/07/07 04:58:25;;;;;;;0.00;0.00;;;17.40;99.90;;;;;;5053170;28;20461;-91
2022/07/07 05:00:54;;;;;;;0.00;0.00;;;17.50;99.90;;;;;;5054450;28;20481;-90
2022/07/07 05:03:29;;;;;;;0.00;0.00;;;17.50;99.90;;;;;;5053063;28;20476;-90
2022/07/07 05:05:58;;;;;;;0.00;0.00;;;17.50;99.90;;;;;;5052743;28;20508;-90
2022/07/07 05:08:27;;;;;;;0.00;0.00;;;17.60;99.90;;;;;;5055651;28;20457;-90
2022/07/07 05:10:55;;;;;;;0.00;0.00;;;17.60;99.90;;;;;;5056421;28;20473;-91
2022/07/07 05:13:25;;;;;;;0.00;0.00;;;17.60;99.90;;;;;;5054072;28;21010;-91
2022/07/07 05:15:54;;;;;;;0.00;0.00;;;17.70;99.90;;;;;;5052811;28;20454;-90
2022/07/07 05:18:22;;;;;;;0.00;0.00;;;17.70;99.90;;;;;;5053309;28;20481;-90
2022/07/07 05:20:52;;;;;;;0.00;0.00;;;17.70;99.90;;;;;;5052348;28;20453;-89
2022/07/07 05:23:20;;;;;;;0.00;0.00;;;17.70;99.90;;;;;;5054747;28;20573;-91
2022/07/07 05:25:48;;;;;;;0.00;0.00;;;17.70;99.90;;;;;;5058019;28;20870;-91
2022/07/07 05:28:16;;;;;;;0.00;0.00;;;17.80;99.90;;;;;;5054613;28;20541;-90
2022/07/07 05:30:44;;;;;;;0.00;0.00;;;17.80;99.90;;;;;;5053264;28;20454;-90
2022/07/07 05:33:13;;;;;;;0.00;0.00;;;17.80;99.90;;;;;;5054098;28;20498;-91
2022/07/07 05:35:42;;;;;;;0.00;0.00;;;17.80;99.90;;;;;;5056037;28;20497;-91
2022/07/07 05:38:12;;;;;;;0.00;0.00;;;17.90;99.90;;;;;;5055010;28;20458;-91
2022/07/07 05:40:40;;;;;;;0.00;0.00;;;17.90;99.90;;;;;;5055175;28;20460;-92
2022/07/07 05:43:08;;;;;;;0.00;0.00;;;18.00;99.90;;;;;;5058065;28;20501;-91
2022/07/07 05:45:38;;;;;;;0.00;0.00;;;18.00;99.90;;;;;;5054462;28;20446;-93
2022/07/07 05:48:07;;;;;;;0.00;0.00;;;18.00;99.90;;;;;;5056745;28;20443;-92
2022/07/07 05:50:36;;;;;;;0.00;0.00;;;18.00;99.90;;;;;;5058642;28;20512;-93
2022/07/07 05:53:05;;;;;;;0.00;0.00;;;18.00;99.90;;;;;;5063272;28;20494;-92
2022/07/07 05:55:34;;;;;;;0.00;0.00;;;18.10;99.90;;;;;;5063641;28;20458;-92
2022/07/07 05:58:07;;;;;;;0.00;0.00;;;18.10;99.90;;;;;;5071478;28;20451;-94
2022/07/07 06:00:36;;;;;;;0.00;0.00;;;18.10;99.90;;;;;;5072621;28;20453;-92
2022/07/07 06:03:04;;;;;;;0.00;0.00;;;18.20;99.90;;;;;;5073610;28;20489;-91
2022/07/07 06:05:33;;;;;;;0.00;0.00;;;18.20;99.90;;;;;;5070840;28;20446;-90
2022/07/07 06:08:01;;;;;;;0.00;0.00;;;18.30;99.90;;;;;;5061696;28;20456;-91
2022/07/07 06:10:30;;;;;;;0.00;0.00;;;18.40;99.90;;;;;;5058575;28;20448;-91
2022/07/07 06:13:06;;;;;;;0.00;0.00;;;18.40;99.90;;;;;;5053653;28;20502;-92
2022/07/07 06:15:35;;;;;;;0.00;0.00;;;18.50;99.90;;;;;;5057089;28;20473;-90
2022/07/07 06:18:03;;;;;;;0.00;0.00;;;18.50;99.90;;;;;;5054218;28;20459;-91
2022/07/07 06:20:36;;;;;;;0.00;0.00;;;18.60;99.90;;;;;;5054429;28;20470;-92
2022/07/07 06:23:08;;;;;;;0.00;0.00;;;18.60;99.90;;;;;;5054453;28;20505;-91
2022/07/07 06:25:37;;;;;;;0.00;0.00;;;18.60;99.90;;;;;;5054432;28;20443;-90
2022/07/07 06:28:07;;;;;;;0.00;0.00;;;18.60;99.90;;;;;;5056792;28;20489;-91
2022/07/07 06:30:35;;;;;;;0.00;0.00;;;18.60;99.90;;;;;;5057782;28;20481;-91
2022/07/07 06:33:04;;;;;;;0.00;0.00;;;18.70;99.90;;;;;;5064171;28;20581;-93
2022/07/07 06:35:32;;;;;;;0.00;0.00;;;18.70;99.90;;;;;;5060220;28;20536;-92
2022/07/07 06:38:04;;;;;;;0.00;0.00;;;18.70;99.90;;;;;;5067303;28;20470;-93
2022/07/07 06:40:32;;;;;;;0.00;0.00;;;18.70;99.90;;;;;;5064323;28;20440;-91
2022/07/07 06:43:01;;;;;;;0.00;0.00;;;18.70;99.90;;;;;;5065542;28;20474;-93
2022/07/07 06:45:38;;;;;;;0.00;0.00;;;18.70;99.90;;;;;;5062941;28;20573;-93
2022/07/07 06:48:12;;;;;;;0.00;0.00;;;18.80;99.90;;;;;;5063667;28;20448;-93
2022/07/07 06:50:42;;;;;;;0.00;0.00;;;18.80;99.90;;;;;;5064540;28;20446;-93
2022/07/07 06:53:10;;;;;;;0.00;0.00;;;18.80;99.90;;;;;;5070189;28;20452;-93
2022/07/07 06:55:41;;;;;;;0.00;0.00;;;18.90;99.90;;;;;;5068477;28;20486;-94
2022/07/07 06:58:09;;;;;;;0.00;0.00;;;19.00;99.90;;;;;;5072880;23;20506;-77
2022/07/07 07:00:39;;;;;;;0.00;0.00;;;19.10;99.90;;;;;;5045402;28;20435;-78
2022/07/07 07:03:07;;;;;;;0.00;0.00;;;19.10;99.90;;;;;;5044818;28;20462;-77
2022/07/07 07:05:35;;;;;;;0.00;0.00;;;19.10;99.90;;;;;;5045410;28;20438;-81
2022/07/07 07:08:04;;;;;;;0.00;0.00;;;19.10;99.90;;;;;;5062320;28;20479;-80
2022/07/07 07:10:32;;;;;;;0.00;0.00;;;19.00;99.90;;;;;;5067051;28;20518;-79
2022/07/07 07:13:00;;;;;;;0.00;0.00;;;19.10;99.90;;;;;;5063820;28;20538;-79
2022/07/07 07:15:28;;;;;;;0.00;0.00;;;19.10;99.90;;;;;;5063311;28;20514;-80
2022/07/07 07:17:57;;;;;;;0.00;0.00;;;19.20;99.90;;;;;;5063794;28;20570;-81
2022/07/07 07:20:25;;;;;;;0.00;0.00;;;19.20;99.90;;;;;;5063580;28;20478;-79
2022/07/07 07:22:53;;;;;;;0.00;0.00;;;19.30;99.90;;;;;;5063635;28;20558;-80
2022/07/07 07:25:21;;;;;;;0.00;0.00;;;19.40;99.90;;;;;;5063118;28;20440;-79
2022/07/07 07:27:49;;;;;;;0.00;0.00;;;19.60;99.90;;;;;;5065606;28;20825;-79
2022/07/07 07:30:17;;;;;;;0.00;0.00;;;19.80;99.90;;;;;;5063188;28;20510;-81
2022/07/07 07:32:45;;;;;;;0.00;0.00;;;20.00;99.90;;;;;;5063458;28;20446;-80
2022/07/07 07:35:14;;;;;;;0.00;0.00;;;20.20;99.90;;;;;;5062440;28;20483;-80
2022/07/07 07:37:42;;;;;;;0.00;0.00;;;20.50;99.90;;;;;;5056068;28;20471;-81
2022/07/07 07:40:12;;;;;;;0.00;0.00;;;20.80;99.90;;;;;;5058285;28;20602;-79
2022/07/07 07:42:40;;;;;;;0.00;0.00;;;21.00;99.90;;;;;;5042103;28;21011;-77
2022/07/07 07:45:12;;;;;;;0.00;0.00;;;21.10;99.90;;;;;;5042586;28;20970;-78
2022/07/07 07:47:43;;;;;;;0.00;0.00;;;21.10;99.90;;;;;;5041692;28;20533;-79
2022/07/07 07:50:12;;;;;;;0.00;0.00;;;21.10;99.90;;;;;;5040717;28;20490;-78
2022/07/07 07:52:43;;;;;;;0.00;0.00;;;21.00;99.90;;;;;;5048046;28;20447;-78
2022/07/07 07:55:13;;;;;;;0.00;0.00;;;20.80;99.90;;;;;;5048520;28;20476;-76
2022/07/07 07:57:41;;;;;;;0.00;0.00;;;20.60;99.90;;;;;;5041695;28;20484;-77
2022/07/07 08:00:11;;;;;;;0.00;0.00;;;20.40;99.90;;;;;;5051389;28;20517;-78
2022/07/07 08:02:39;;;;;;;0.00;0.00;;;19.90;99.90;;;;;;5049711;28;20817;-76
2022/07/07 08:05:08;;;;;;;0.00;0.00;;;19.30;99.90;;;;;;5054627;28;20486;-78
2022/07/07 08:07:36;;;;;;;0.00;0.00;;;18.70;99.90;;;;;;5045528;28;20864;-77
2022/07/07 08:10:08;;;;;;;0.00;0.00;;;18.30;99.90;;;;;;5043326;28;20837;-78
2022/07/07 08:12:36;;;;;;;0.00;0.00;;;18.00;99.90;;;;;;5043568;28;20473;-82
2022/07/07 08:15:06;;;;;;;0.00;0.00;;;17.80;99.90;;;;;;5054113;28;20849;-84
2022/07/07 08:17:34;;;;;;;0.00;0.00;;;17.70;99.90;;;;;;5043814;28;20537;-76
2022/07/07 08:20:04;;;;;;;0.00;0.00;;;17.60;99.90;;;;;;5041836;28;20438;-75
2022/07/07 08:22:32;;;;;;;0.00;0.00;;;17.60;99.90;;;;;;5042245;28;20555;-77
2022/07/07 08:25:00;;;;;;;0.00;0.00;;;17.70;99.90;;;;;;5042767;28;20945;-76
2022/07/07 08:27:29;;;;;;;0.00;0.00;;;17.70;99.90;;;;;;5041182;28;20465;-77
2022/07/07 08:29:58;;;;;;;0.00;0.00;;;17.70;99.90;;;;;;5042221;28;20435;-76
2022/07/07 08:32:26;;;;;;;0.00;0.00;;;17.80;99.90;;;;;;5048706;28;20448;-76
2022/07/07 08:34:54;;;;;;;0.00;0.00;;;17.90;99.90;;;;;;5041109;28;21094;-75
2022/07/07 08:37:22;;;;;;;0.00;0.00;;;18.00;99.90;;;;;;5042135;28;20481;-77
2022/07/07 08:39:50;;;;;;;0.00;0.00;;;18.20;99.90;;;;;;5042489;28;20545;-77
2022/07/07 08:42:18;;;;;;;0.00;0.00;;;18.40;99.90;;;;;;5042728;28;21103;-77
2022/07/07 08:44:48;;;;;;;0.00;0.00;;;18.50;99.90;;;;;;5045340;28;20514;-76
2022/07/07 08:47:17;;;;;;;0.00;0.00;;;18.60;99.90;;;;;;5045596;28;20459;-77
2022/07/07 08:49:45;;;;;;;0.00;0.00;;;18.80;99.90;;;;;;5051445;28;20538;-78
2022/07/07 08:52:13;;;;;;;0.00;0.00;;;18.90;99.90;;;;;;5051199;28;20533;-76
2022/07/07 08:54:43;;;;;;;0.00;0.00;;;19.00;99.90;;;;;;5049018;28;20638;-77
2022/07/07 08:57:11;;;;;;;0.00;0.00;;;19.10;99.90;;;;;;5049232;28;20477;-78
2022/07/07 08:59:38;;;;;;;0.00;0.00;;;19.10;99.90;;;;;;5048556;28;20548;-76
2022/07/07 09:02:10;;;;;;;0.00;0.00;;;19.30;99.90;;;;;;5046931;28;21036;-76
2022/07/07 09:04:38;;;;;;;0.00;0.00;;;19.40;99.90;;;;;;5043151;28;20442;-77
2022/07/07 09:07:07;;;;;;;0.00;0.00;;;19.40;99.90;;;;;;5048776;28;20457;-75
2022/07/07 09:09:43;;;;;;;0.00;0.00;;;19.30;99.90;;;;;;5044519;28;20438;-75
2022/07/07 09:12:13;;;;;;;0.00;0.00;;;19.30;99.90;;;;;;5048496;28;20982;-77
2022/07/07 09:14:43;;;;;;;0.00;0.00;;;19.30;99.90;;;;;;5057905;28;20938;-76
2022/07/07 09:17:19;;;;;;;0.00;0.00;;;19.40;99.90;;;;;;5041159;28;20490;-77
2022/07/07 09:19:59;;;;;;;0.00;0.00;;;19.40;99.90;;;;;;5040685;28;20440;-77
2022/07/07 09:22:45;;;;;;;0.00;0.00;;;19.40;99.90;;;;;;5048647;28;20475;-76
2022/07/07 09:25:13;;;;;;;0.00;0.00;;;19.30;99.90;;;;;;5038837;28;20972;-76
2022/07/07 09:28:03;;;;;;;0.00;0.00;;;19.10;99.90;;;;;;5038567;28;20485;-76
2022/07/07 09:30:34;;;;;;;0.00;0.00;;;18.90;99.90;;;;;;5034571;28;20455;-76
2022/07/07 09:33:06;;;;;;;0.00;0.00;;;18.80;99.90;;;;;;5039794;28;21260;-78
2022/07/07 09:38:27;;;;;;;0.00;0.00;;;18.70;99.90;;;;;;5038968;28;20895;-76
2022/07/07 09:41:02;;;;;;;0.00;0.00;;;18.70;99.90;;;;;;5040579;28;20459;-76
2022/07/07 09:43:31;;;;;;;0.00;0.00;;;18.80;99.90;;;;;;5042756;28;20454;-76
2022/07/07 09:46:08;;;;;;;0.00;0.00;;;18.90;99.90;;;;;;5043546;28;20447;-77
2022/07/07 09:48:41;;;;;;;0.00;0.00;;;19.10;99.90;;;;;;5037462;28;20455;-75
2022/07/07 09:51:14;;;;;;;0.00;0.00;;;19.30;99.90;;;;;;5039035;28;20458;-77
2022/07/07 09:54:03;;;;;;;0.00;0.00;;;19.50;99.90;;;;;;5036942;28;20444;-74
2022/07/07 09:56:33;;;;;;;0.00;0.00;;;19.80;99.90;;;;;;5041777;28;20494;-76
2022/07/07 09:59:02;;;;;;;0.00;0.00;;;19.80;99.90;;;;;;5046549;28;20938;-76
2022/07/07 10:01:31;;;;;;;0.00;0.00;;;19.80;99.90;;;;;;5048201;28;20428;-77
2022/07/07 10:04:03;;;;;;;0.00;0.00;;;19.80;99.90;;;;;;5047236;28;20542;-77
2022/07/07 10:06:33;;;;;;;0.00;0.00;;;19.80;99.90;;;;;;5049287;28;20452;-77
2022/07/07 10:09:04;;;;;;;0.00;0.00;;;19.70;99.90;;;;;;5045392;28;20531;-74
2022/07/07 10:11:39;;;;;;;0.00;0.00;;;19.70;99.90;;;;;;5050991;28;20800;-77
2022/07/07 10:14:16;;;;;;;0.00;0.00;;;19.80;99.90;;;;;;5052318;28;20742;-77
2022/07/07 10:16:45;;;;;;;0.00;0.00;;;20.00;99.90;;;;;;5053957;28;20515;-76
2022/07/07 10:19:16;;;;;;;0.00;0.00;;;20.10;99.90;;;;;;5054857;28;20925;-76
2022/07/07 10:21:45;;;;;;;0.00;0.00;;;20.10;99.90;;;;;;5051511;28;20492;-75
2022/07/07 10:24:15;;;;;;;0.00;0.00;;;20.00;99.90;;;;;;5051105;28;20859;-74
2022/07/07 10:26:48;;;;;;;0.00;0.00;;;19.90;99.90;;;;;;5052139;28;21027;-76
2022/07/07 10:29:17;;;;;;;0.00;0.00;;;20.00;99.90;;;;;;5041119;28;20459;-77
2022/07/07 10:31:52;;;;;;;0.00;0.00;;;20.10;99.90;;;;;;5040855;28;20462;-77
2022/07/07 10:34:33;;;;;;;0.00;0.00;;;20.00;99.90;;;;;;5040737;28;20462;-77
2022/07/07 10:37:03;;;;;;;0.00;0.00;;;19.90;99.90;;;;;;5051953;28;20558;-77
2022/07/07 10:39:47;;;;;;;0.00;0.00;;;19.80;99.90;;;;;;5049095;28;20520;-78
2022/07/07 10:42:45;;;;;;;0.00;0.00;;;19.90;99.90;;;;;;5039980;28;20531;-76
2022/07/07 10:45:14;;;;;;;0.00;0.00;;;20.00;99.90;;;;;;5047670;28;20880;-80
2022/07/07 10:47:43;;;;;;;0.00;0.00;;;20.30;99.90;;;;;;5056369;28;20513;-80
2022/07/07 10:50:30;;;;;;;0.00;0.00;;;20.60;99.90;;;;;;5056948;28;20962;-81
2022/07/07 10:52:59;;;;;;;0.00;0.00;;;20.90;99.90;;;;;;5051643;28;20947;-80
2022/07/07 10:55:54;;;;;;;0.00;0.00;;;21.00;99.90;;;;;;5046523;28;20517;-80
2022/07/07 10:58:54;;;;;;;0.00;0.00;;;21.10;99.90;;;;;;5047107;28;20500;-80
2022/07/07 11:01:22;;;;;;;0.00;0.00;;;21.00;99.90;;;;;;5053119;28;20535;-81
2022/07/07 11:03:50;;;;;;;0.00;0.00;;;20.70;99.90;;;;;;5049677;28;20459;-80
2022/07/07 11:06:20;;;;;;;0.00;0.00;;;20.70;99.90;;;;;;5049513;28;20452;-80
2022/07/07 11:09:00;;;;;;;0.00;0.00;;;20.60;99.90;;;;;;5050047;28;20463;-79
2022/07/07 11:11:29;;;;;;;0.00;0.00;;;20.70;99.90;;;;;;5055944;28;20467;-80
2022/07/07 11:14:06;;;;;;;0.00;0.00;;;20.80;99.90;;;;;;5060427;28;20456;-78
2022/07/07 11:16:34;;;;;;;0.00;0.00;;;21.10;99.90;;;;;;5062312;28;20517;-78
2022/07/07 11:19:04;;;;;;;0.00;0.00;;;21.20;99.90;;;;;;5055731;28;20476;-77
2022/07/07 11:21:41;;;;;;;0.00;0.00;;;21.20;99.90;;;;;;5052633;28;20510;-81
2022/07/07 11:24:21;;;;;;;0.00;0.00;;;21.10;99.90;;;;;;5051195;28;20607;-81
2022/07/07 11:26:57;;;;;;;0.00;0.00;;;21.10;99.90;;;;;;5048438;28;20461;-79
2022/07/07 11:29:25;;;;;;;0.00;0.00;;;21.20;99.90;;;;;;5052353;28;20445;-80
2022/07/07 11:32:09;;;;;;;0.00;0.00;;;21.20;99.90;;;;;;5058082;28;20483;-81
2022/07/07 11:34:48;;;;;;;0.00;0.00;;;21.30;99.90;;;;;;5062089;28;20432;-80
2022/07/07 11:37:23;;;;;;;0.00;0.00;;;21.30;99.90;;;;;;5065435;28;20471;-80
2022/07/07 11:39:52;;;;;;;0.00;0.00;;;21.20;99.90;;;;;;5070108;28;20726;-78
2022/07/07 11:42:20;;;;;;;0.00;0.00;;;21.00;99.90;;;;;;5071594;28;20452;-80
2022/07/07 11:44:48;;;;;;;0.00;0.00;;;20.90;99.90;;;;;;5067832;28;20454;-82
2022/07/07 11:47:17;;;;;;;0.00;0.00;;;20.80;99.90;;;;;;5054051;28;20678;-81
2022/07/07 11:49:45;;;;;;;0.00;0.00;;;20.70;99.90;;;;;;5056063;28;20685;-82
2022/07/07 11:52:15;;;;;;;0.00;0.00;;;20.70;99.90;;;;;;5052860;28;20508;-84
2022/07/07 11:54:47;;;;;;;0.00;0.00;;;20.80;99.90;;;;;;5051545;28;20460;-83
2022/07/07 11:57:27;;;;;;;0.00;0.00;;;21.00;99.90;;;;;;5046154;28;21037;-83
2022/07/07 11:59:55;;;;;;;0.00;0.00;;;21.10;99.90;;;;;;5049182;28;20447;-82
2022/07/07 12:02:23;;;;;;;0.00;0.00;;;21.20;99.90;;;;;;5048363;28;20989;-81
2022/07/07 12:04:53;;;;;;;0.00;0.00;;;21.30;99.90;;;;;;5046173;28;20450;-83
2022/07/07 12:07:22;;;;;;;0.00;0.00;;;21.40;99.90;;;;;;5047827;28;20444;-84
2022/07/07 12:09:51;;;;;;;0.00;0.00;;;21.20;99.90;;;;;;5046220;28;20456;-81
2022/07/07 12:12:19;;;;;;;0.00;0.00;;;20.70;99.90;;;;;;5046935;28;20435;-82
2022/07/07 12:14:47;;;;;;;0.00;0.00;;;20.10;99.90;;;;;;5045422;28;20526;-82
2022/07/07 12:17:34;;;;;;;0.00;0.00;;;19.70;99.90;;;;;;5046134;28;20910;-81
2022/07/07 12:20:02;;;;;;;0.00;0.00;;;19.30;99.90;;;;;;5055325;28;20444;-76
2022/07/07 12:22:34;;;;;;;0.00;0.00;;;19.10;99.90;;;;;;5040514;28;20435;-75
2022/07/07 12:25:05;;;;;;;0.00;0.00;;;18.80;99.90;;;;;;5055668;28;20819;-75
2022/07/07 12:27:56;;;;;;;0.00;0.00;;;18.60;99.90;;;;;;5059316;28;20856;-73
2022/07/07 12:30:25;;;;;;;0.00;0.00;;;18.60;99.90;;;;;;5053643;28;20526;-75
2022/07/07 12:32:54;;;;;;;0.00;0.00;;;18.50;99.90;;;;;;5045007;28;20763;-74
2022/07/07 12:35:33;;;;;;;0.00;0.00;;;18.60;99.90;;;;;;5051036;28;20566;-75
2022/07/07 12:38:04;;;;;;;0.00;0.00;;;18.60;99.90;;;;;;5041318;28;20478;-75
2022/07/07 12:40:37;;;;;;;0.00;0.00;;;18.70;99.90;;;;;;5048603;28;20449;-76
2022/07/07 12:43:06;;;;;;;0.00;0.00;;;18.90;99.90;;;;;;5046624;28;20455;-75
2022/07/07 12:45:35;;;;;;;0.00;0.00;;;19.10;99.90;;;;;;5051067;28;21169;-75
2022/07/07 12:48:03;;;;;;;0.00;0.00;;;19.20;99.90;;;;;;5051326;28;20577;-74
2022/07/07 12:50:31;;;;;;;0.00;0.00;;;19.30;99.90;;;;;;5038013;28;20440;-75
2022/07/07 12:53:00;;;;;;;0.00;0.00;;;19.30;99.90;;;;;;5038573;28;20482;-74
2022/07/07 12:55:39;;;;;;;0.00;0.00;;;19.40;99.90;;;;;;5039425;28;20739;-74
2022/07/07 12:58:22;;;;;;;0.00;0.00;;;19.60;99.90;;;;;;5051568;28;20850;-74
2022/07/07 13:00:59;;;;;;;0.00;0.00;;;19.90;99.90;;;;;;5058417;28;20454;-74
2022/07/07 13:03:30;;;;;;;0.00;0.00;;;20.10;99.90;;;;;;5058433;28;20918;-75
2022/07/07 13:06:00;;;;;;;0.00;0.00;;;20.20;99.90;;;;;;5052826;28;20483;-73
2022/07/07 13:08:28;;;;;;;0.00;0.00;;;20.30;99.90;;;;;;5050136;28;20565;-75